Schedule Details

Flight Number: CPX817
Departure: RAF Mildenhall (EGUN) at N/A
Arrival: Ramstein Air Force Base (ETAR) at N/A


Current Weather Information
EGUN 151956Z AUTO 17007KT 9999 CLR 08/08 A3021 RMK AO2 SLP234 T00780078 $
ETAR 151956Z 00000KT 9999 CLR 01/01 A3040 RMK AO2A SLP312 T00080008 $

Route Map